Time;durP1;ratioP1;P1;durP2;ratioP2;P2;SDS_P1;SDS_P2;PMS_P1;PMS_P2;Temp;Humidity;BMP_temperature;BMP_pressure;BME280_temperature;BME280_humidity;BME280_pressure;Samples;Min_cycle;Max_cycle;Signal;HPM_P1;HPM_P2
2023/10/04 00:00:54;;;;;;;7.65;2.60;;;14.10;99.90;;;;;;5051501;28;20143;-70
2023/10/04 00:03:21;;;;;;;12.05;3.17;;;14.10;99.90;;;;;;5050875;28;20024;-70
2023/10/04 00:05:48;;;;;;;12.02;3.10;;;14.00;99.90;;;;;;5050191;28;20502;-70
2023/10/04 00:08:14;;;;;;;12.15;3.47;;;14.00;99.90;;;;;;5050679;28;20021;-69
2023/10/04 00:10:39;;;;;;;11.40;3.50;;;14.00;99.90;;;;;;5051507;28;20043;-70
2023/10/04 00:13:05;;;;;;;7.03;3.17;;;14.00;99.90;;;;;;5051916;28;20096;-71
2023/10/04 00:15:31;;;;;;;12.52;3.53;;;14.00;99.90;;;;;;5049979;28;20036;-70
2023/10/04 00:17:57;;;;;;;9.13;2.90;;;14.00;99.90;;;;;;5050593;28;20486;-70
2023/10/04 00:20:31;;;;;;;12.73;3.42;;;14.00;99.90;;;;;;5051202;28;20115;-70
2023/10/04 00:22:57;;;;;;;8.30;3.25;;;14.00;99.90;;;;;;5050619;28;20021;-70
2023/10/04 00:25:23;;;;;;;10.13;3.25;;;14.00;99.90;;;;;;5051086;28;20483;-71
2023/10/04 00:27:52;;;;;;;12.38;3.60;;;14.00;99.90;;;;;;5051952;28;20029;-70
2023/10/04 00:30:18;;;;;;;11.98;3.22;;;14.00;99.90;;;;;;5049855;28;20029;-70
2023/10/04 00:32:48;;;;;;;12.27;3.97;;;14.00;99.90;;;;;;5051647;28;20484;-70
2023/10/04 00:35:17;;;;;;;11.77;4.15;;;14.00;99.90;;;;;;5049790;28;20032;-70
2023/10/04 00:37:46;;;;;;;11.52;3.58;;;14.00;99.90;;;;;;5051604;28;20021;-70
2023/10/04 00:40:15;;;;;;;8.20;2.90;;;14.10;99.90;;;;;;5051150;28;20162;-70
2023/10/04 00:42:40;;;;;;;10.35;2.85;;;14.00;99.90;;;;;;5051860;28;20273;-70
2023/10/04 00:45:09;;;;;;;12.43;3.47;;;14.10;99.90;;;;;;5051132;28;20495;-70
2023/10/04 00:47:35;;;;;;;9.07;3.35;;;14.00;99.90;;;;;;5051674;28;20551;-70
2023/10/04 00:50:14;;;;;;;12.07;3.53;;;14.10;99.90;;;;;;5050593;28;20069;-70
2023/10/04 00:52:52;;;;;;;7.68;2.90;;;14.00;99.90;;;;;;5051614;28;20036;-71
2023/10/04 00:55:20;;;;;;;12.85;3.40;;;14.00;99.90;;;;;;5050878;28;20075;-70
2023/10/04 00:57:49;;;;;;;11.38;3.15;;;14.00;99.90;;;;;;5051510;28;20037;-70
2023/10/04 01:00:19;;;;;;;8.20;2.70;;;14.00;99.90;;;;;;5050885;28;20096;-70
2023/10/04 01:02:45;;;;;;;15.10;3.80;;;14.00;99.90;;;;;;5050111;28;20025;-70
2023/10/04 01:05:12;;;;;;;7.05;3.00;;;14.00;99.90;;;;;;5053289;28;20021;-70
2023/10/04 01:07:39;;;;;;;8.52;2.95;;;13.90;99.90;;;;;;5055261;28;20021;-70
2023/10/04 01:10:20;;;;;;;13.57;4.07;;;13.90;99.90;;;;;;5054612;28;20025;-70
2023/10/04 01:12:49;;;;;;;11.77;3.30;;;13.90;99.90;;;;;;5054054;28;20021;-70
2023/10/04 01:15:31;;;;;;;11.70;3.67;;;13.90;99.90;;;;;;5053279;28;20094;-70
2023/10/04 01:18:01;;;;;;;9.07;3.03;;;13.90;99.90;;;;;;5053847;28;20048;-70
2023/10/04 01:20:28;;;;;;;10.25;2.85;;;13.90;99.90;;;;;;5054588;28;20025;-70
2023/10/04 01:23:06;;;;;;;12.80;3.25;;;13.90;99.90;;;;;;5054051;28;20025;-70
2023/10/04 01:25:34;;;;;;;11.00;3.13;;;13.90;99.90;;;;;;5054538;28;20399;-70
2023/10/04 01:28:01;;;;;;;8.98;3.00;;;13.80;99.90;;;;;;5055209;28;20032;-70
2023/10/04 01:30:28;;;;;;;7.93;3.00;;;13.80;99.90;;;;;;5054624;28;20033;-70
2023/10/04 01:32:54;;;;;;;13.00;3.47;;;13.80;99.90;;;;;;5055218;28;20052;-70
2023/10/04 01:35:23;;;;;;;10.07;3.65;;;13.80;99.90;;;;;;5054562;28;20017;-70
2023/10/04 01:37:50;;;;;;;11.40;3.35;;;13.80;99.90;;;;;;5054740;28;20025;-70
2023/10/04 01:40:19;;;;;;;11.05;3.20;;;13.80;99.90;;;;;;5054183;28;20100;-70
2023/10/04 01:42:45;;;;;;;14.35;3.28;;;13.80;99.90;;;;;;5053767;28;20422;-70
2023/10/04 01:45:15;;;;;;;10.88;3.47;;;13.80;99.90;;;;;;5054497;28;20048;-70
2023/10/04 01:47:40;;;;;;;11.85;3.53;;;13.70;99.90;;;;;;5054909;28;20582;-70
2023/10/04 01:50:09;;;;;;;10.73;3.47;;;13.80;99.90;;;;;;5053770;28;20033;-70
2023/10/04 01:52:35;;;;;;;9.65;3.10;;;13.80;99.90;;;;;;5054625;28;20045;-70
2023/10/04 01:55:01;;;;;;;6.22;3.20;;;13.80;99.90;;;;;;5053869;28;20619;-70
2023/10/04 01:57:27;;;;;;;10.80;3.30;;;13.80;99.90;;;;;;5054588;28;20036;-70
2023/10/04 01:59:54;;;;;;;14.80;3.53;;;13.80;99.90;;;;;;5052440;28;20025;-70
2023/10/04 02:02:21;;;;;;;10.10;3.30;;;13.80;99.90;;;;;;5054537;28;20497;-70
2023/10/04 02:04:52;;;;;;;10.48;3.33;;;13.80;99.90;;;;;;5052567;28;20403;-71
2023/10/04 02:07:21;;;;;;;9.07;3.20;;;13.80;99.90;;;;;;5054237;28;20033;-70
2023/10/04 02:09:47;;;;;;;9.30;3.72;;;13.80;99.90;;;;;;5053969;28;20024;-70
2023/10/04 02:12:13;;;;;;;9.27;3.45;;;13.80;99.90;;;;;;5053969;28;20063;-71
2023/10/04 02:14:40;;;;;;;10.98;3.88;;;13.80;99.90;;;;;;5053882;28;20056;-70
2023/10/04 02:17:08;;;;;;;15.18;4.13;;;13.80;99.90;;;;;;5052553;28;20086;-70
2023/10/04 02:19:34;;;;;;;9.60;3.63;;;13.80;99.90;;;;;;5053638;28;20045;-70
2023/10/04 02:22:00;;;;;;;10.55;3.30;;;13.80;99.90;;;;;;5052437;28;20439;-70
2023/10/04 02:24:26;;;;;;;12.40;4.03;;;13.80;99.90;;;;;;5052832;28;20087;-70
2023/10/04 02:26:52;;;;;;;11.43;3.72;;;13.80;99.90;;;;;;5052184;28;20021;-70
2023/10/04 02:29:18;;;;;;;10.65;3.65;;;13.80;99.90;;;;;;5054008;28;20101;-70
2023/10/04 02:31:44;;;;;;;10.27;3.58;;;13.80;99.90;;;;;;5052015;28;20549;-70
2023/10/04 02:34:11;;;;;;;11.57;3.40;;;13.80;99.90;;;;;;5053632;28;20479;-70
2023/10/04 02:36:37;;;;;;;10.73;3.30;;;13.80;99.90;;;;;;5053086;28;20458;-70
2023/10/04 02:39:10;;;;;;;12.93;3.85;;;13.80;99.90;;;;;;5053789;28;20051;-70
2023/10/04 02:41:36;;;;;;;8.85;3.47;;;13.90;99.90;;;;;;5052995;28;20475;-70
2023/10/04 02:44:02;;;;;;;13.65;3.83;;;13.80;99.90;;;;;;5053803;28;20057;-70
2023/10/04 02:46:28;;;;;;;9.48;3.53;;;13.80;99.90;;;;;;5051733;28;20079;-70
2023/10/04 02:48:54;;;;;;;14.02;4.10;;;13.80;99.90;;;;;;5053299;28;20044;-70
2023/10/04 02:51:20;;;;;;;11.88;4.05;;;13.90;99.90;;;;;;5052933;28;20025;-70
2023/10/04 02:53:46;;;;;;;8.18;3.25;;;13.90;99.90;;;;;;5053615;28;20021;-70
2023/10/04 02:56:11;;;;;;;8.75;2.80;;;13.90;99.90;;;;;;5052913;28;20033;-70
2023/10/04 02:58:37;;;;;;;10.55;3.20;;;13.90;99.90;;;;;;5053507;28;20491;-70
2023/10/04 03:01:03;;;;;;;10.23;3.17;;;13.90;99.90;;;;;;5052718;28;20517;-70
2023/10/04 03:03:30;;;;;;;9.70;3.13;;;13.80;99.90;;;;;;5053324;28;20025;-70
2023/10/04 03:05:57;;;;;;;7.93;2.60;;;13.80;99.90;;;;;;5051192;28;20511;-70
2023/10/04 03:08:23;;;;;;;9.50;3.38;;;13.80;99.90;;;;;;5053269;28;20055;-70
2023/10/04 03:10:55;;;;;;;8.90;3.50;;;13.80;99.90;;;;;;5052594;28;20104;-70
2023/10/04 03:13:27;;;;;;;10.95;2.88;;;13.80;99.90;;;;;;5053052;28;20432;-70
2023/10/04 03:15:53;;;;;;;11.85;3.20;;;13.80;99.90;;;;;;5052332;28;20040;-70
2023/10/04 03:18:20;;;;;;;11.02;3.75;;;13.80;99.90;;;;;;5051495;28;20071;-70
2023/10/04 03:23:27;;;;;;;11.50;3.40;;;13.80;99.90;;;;;;5052872;28;20064;-71
2023/10/04 03:25:54;;;;;;;15.68;3.45;;;13.80;99.90;;;;;;5052116;28;20429;-70
2023/10/04 03:28:25;;;;;;;8.43;3.17;;;13.80;99.90;;;;;;5052363;28;20017;-70
2023/10/04 03:30:52;;;;;;;10.27;3.03;;;13.90;99.90;;;;;;5050768;28;20655;-71
2023/10/04 03:33:17;;;;;;;13.43;3.40;;;13.80;99.90;;;;;;5051309;28;20112;-70
2023/10/04 03:35:44;;;;;;;16.40;3.60;;;13.80;99.90;;;;;;5051884;28;20124;-70
2023/10/04 03:38:11;;;;;;;11.90;2.72;;;13.80;99.90;;;;;;5052736;28;20028;-70
2023/10/04 03:40:38;;;;;;;11.63;3.10;;;13.80;99.90;;;;;;5052156;28;20068;-70
2023/10/04 03:43:06;;;;;;;10.98;3.13;;;13.80;99.90;;;;;;5052565;28;20047;-70
2023/10/04 03:45:32;;;;;;;15.48;3.50;;;13.90;99.90;;;;;;5051980;28;20164;-70
2023/10/04 03:47:59;;;;;;;10.27;3.42;;;13.90;99.90;;;;;;5052824;28;20078;-70
2023/10/04 03:50:25;;;;;;;10.85;3.03;;;13.90;99.90;;;;;;5051706;28;20102;-70
2023/10/04 03:52:52;;;;;;;10.23;3.35;;;13.80;99.90;;;;;;5052372;28;20021;-70
2023/10/04 03:55:18;;;;;;;11.05;3.13;;;13.90;99.90;;;;;;5052170;28;20021;-70
2023/10/04 03:57:44;;;;;;;10.50;3.50;;;13.80;99.90;;;;;;5051028;28;20496;-70
2023/10/04 04:00:17;;;;;;;8.18;3.08;;;13.80;99.90;;;;;;5051759;28;20043;-70
2023/10/04 04:02:43;;;;;;;8.88;3.20;;;13.80;99.90;;;;;;5052206;28;20025;-70
2023/10/04 04:05:13;;;;;;;12.57;3.10;;;13.80;99.90;;;;;;5051991;28;20032;-70
2023/10/04 04:07:40;;;;;;;10.07;3.42;;;13.70;99.90;;;;;;5052246;28;20039;-70
2023/10/04 04:10:08;;;;;;;10.25;3.40;;;13.80;99.90;;;;;;5051727;28;20025;-70
2023/10/04 04:12:34;;;;;;;10.57;3.70;;;13.80;99.90;;;;;;5051710;28;20029;-70
2023/10/04 04:15:02;;;;;;;11.30;3.60;;;13.70;99.90;;;;;;5051548;28;20538;-70
2023/10/04 04:17:28;;;;;;;9.95;3.00;;;13.70;99.90;;;;;;5050471;28;20025;-70
2023/10/04 04:19:54;;;;;;;12.98;3.33;;;13.70;99.90;;;;;;5051714;28;20017;-70
2023/10/04 04:22:23;;;;;;;11.32;2.70;;;13.70;99.90;;;;;;5051519;28;20031;-70
2023/10/04 04:24:52;;;;;;;10.50;3.65;;;13.60;99.90;;;;;;5051833;28;20376;-70
2023/10/04 04:27:22;;;;;;;12.80;3.60;;;13.60;99.90;;;;;;5051524;28;20029;-70
2023/10/04 04:29:54;;;;;;;9.02;3.03;;;13.60;99.90;;;;;;5052101;28;20071;-70
2023/10/04 04:32:26;;;;;;;12.73;3.47;;;13.60;99.90;;;;;;5051398;28;20107;-70
2023/10/04 04:34:56;;;;;;;11.30;3.45;;;13.60;99.90;;;;;;5051692;28;20025;-70
2023/10/04 04:37:33;;;;;;;12.60;3.10;;;13.60;99.90;;;;;;5051308;28;20032;-70
2023/10/04 04:40:00;;;;;;;14.02;3.33;;;13.60;99.90;;;;;;5053675;28;20025;-70
2023/10/04 04:42:35;;;;;;;8.95;2.85;;;13.50;99.90;;;;;;5055741;28;20017;-70
2023/10/04 04:45:03;;;;;;;14.25;3.85;;;13.50;99.90;;;;;;5055546;28;20044;-70
2023/10/04 04:47:30;;;;;;;11.63;3.30;;;13.50;99.90;;;;;;5055558;28;20104;-70
2023/10/04 04:49:59;;;;;;;10.82;3.22;;;13.50;99.90;;;;;;5055292;28;20067;-70
2023/10/04 04:52:25;;;;;;;12.98;3.35;;;13.50;99.90;;;;;;5055231;28;20467;-70
2023/10/04 04:54:50;;;;;;;14.57;3.65;;;13.40;99.90;;;;;;5055877;28;20036;-70
2023/10/04 04:57:16;;;;;;;14.07;3.45;;;13.40;99.90;;;;;;5055052;28;20029;-70
2023/10/04 04:59:43;;;;;;;13.40;2.75;;;13.40;99.90;;;;;;5055606;28;20029;-70
2023/10/04 05:02:09;;;;;;;10.55;3.22;;;13.40;99.90;;;;;;5054991;28;20471;-70
2023/10/04 05:04:35;;;;;;;9.73;3.17;;;13.40;99.90;;;;;;5054338;28;20025;-70
2023/10/04 05:07:01;;;;;;;11.20;3.58;;;13.40;99.90;;;;;;5054826;28;20017;-70
2023/10/04 05:09:26;;;;;;;12.13;3.58;;;13.40;99.90;;;;;;5055384;28;20079;-71
2023/10/04 05:11:52;;;;;;;15.23;3.65;;;13.30;99.90;;;;;;5054842;28;20029;-70
2023/10/04 05:14:18;;;;;;;10.80;4.28;;;13.30;99.90;;;;;;5055188;28;20078;-70
2023/10/04 05:16:44;;;;;;;12.02;3.85;;;13.30;99.90;;;;;;5054513;28;20025;-69
2023/10/04 05:19:13;;;;;;;14.50;3.85;;;13.30;99.90;;;;;;5055234;28;20037;-70
2023/10/04 05:21:38;;;;;;;14.10;3.65;;;13.30;99.90;;;;;;5054415;28;20100;-70
2023/10/04 05:24:05;;;;;;;7.88;3.05;;;13.30;99.90;;;;;;5055177;28;20063;-70
2023/10/04 05:26:32;;;;;;;11.98;3.90;;;13.20;99.90;;;;;;5054551;28;20572;-70
2023/10/04 05:29:00;;;;;;;14.45;3.95;;;13.20;99.90;;;;;;5055055;28;20021;-70
2023/10/04 05:31:25;;;;;;;14.20;3.72;;;13.20;99.90;;;;;;5054342;28;20044;-70
2023/10/04 05:33:51;;;;;;;11.50;3.70;;;13.20;99.90;;;;;;5054950;28;20484;-70
2023/10/04 05:36:17;;;;;;;15.10;4.07;;;13.20;99.90;;;;;;5054239;28;20029;-70
2023/10/04 05:38:43;;;;;;;11.10;3.80;;;13.20;99.90;;;;;;5055091;28;20118;-71
2023/10/04 05:41:10;;;;;;;14.30;3.70;;;13.20;99.90;;;;;;5054216;28;20503;-70
2023/10/04 05:43:35;;;;;;;12.05;3.95;;;13.20;99.90;;;;;;5053518;28;20070;-70
2023/10/04 05:46:02;;;;;;;13.57;4.10;;;13.20;99.90;;;;;;5054181;28;20100;-70
2023/10/04 05:48:29;;;;;;;9.98;3.72;;;13.10;99.90;;;;;;5054733;28;20124;-70
2023/10/04 05:50:54;;;;;;;13.73;3.50;;;13.10;99.90;;;;;;5053722;28;20037;-71
2023/10/04 05:53:21;;;;;;;14.25;4.63;;;13.10;99.90;;;;;;5054723;28;20071;-71
2023/10/04 05:55:48;;;;;;;11.98;4.18;;;13.10;99.90;;;;;;5054059;28;20051;-71
2023/10/04 05:58:15;;;;;;;11.75;4.07;;;13.10;99.90;;;;;;5054627;28;20021;-70
2023/10/04 06:00:41;;;;;;;11.10;4.25;;;13.10;99.90;;;;;;5054168;28;20032;-70
2023/10/04 06:03:10;;;;;;;14.48;5.32;;;13.10;99.90;;;;;;5053461;28;20025;-70
2023/10/04 06:05:38;;;;;;;13.00;4.47;;;13.00;99.90;;;;;;5054098;28;20310;-70
2023/10/04 06:08:15;;;;;;;13.25;4.75;;;13.00;99.90;;;;;;5054113;28;20020;-70
2023/10/04 06:10:42;;;;;;;11.27;4.43;;;13.00;99.90;;;;;;5052529;28;20459;-70
2023/10/04 06:13:11;;;;;;;11.73;4.15;;;13.00;99.90;;;;;;5054327;28;20028;-70
2023/10/04 06:15:47;;;;;;;13.18;4.30;;;13.00;99.90;;;;;;5052499;28;20021;-70
2023/10/04 06:18:16;;;;;;;13.35;4.30;;;13.00;99.90;;;;;;5054013;28;20028;-70
2023/10/04 06:20:43;;;;;;;10.98;4.28;;;13.00;99.90;;;;;;5054047;28;20022;-70
2023/10/04 06:23:10;;;;;;;14.25;4.78;;;13.00;99.90;;;;;;5052751;28;20120;-70
2023/10/04 06:25:47;;;;;;;16.65;5.40;;;13.00;99.90;;;;;;5053509;28;20475;-70
2023/10/04 06:28:14;;;;;;;11.15;4.30;;;13.00;99.90;;;;;;5053010;28;20040;-70
2023/10/04 06:30:41;;;;;;;13.88;5.43;;;13.00;99.90;;;;;;5052183;28;20025;-70
2023/10/04 06:33:11;;;;;;;15.95;5.28;;;13.10;99.90;;;;;;5053806;28;20017;-70
2023/10/04 06:35:38;;;;;;;16.67;5.18;;;13.00;99.90;;;;;;5053617;28;20021;-70
2023/10/04 06:38:06;;;;;;;22.00;4.95;;;13.00;99.90;;;;;;5053338;28;20479;-70
2023/10/04 06:40:32;;;;;;;15.70;5.38;;;13.10;99.90;;;;;;5053351;28;20025;-70
2023/10/04 06:43:00;;;;;;;15.60;4.80;;;13.10;99.90;;;;;;5053394;28;20017;-71
2023/10/04 06:45:26;;;;;;;12.77;4.28;;;13.10;99.90;;;;;;5053196;28;20096;-70
2023/10/04 06:47:57;;;;;;;15.10;6.10;;;13.10;99.90;;;;;;5053149;28;20108;-70
2023/10/04 06:50:28;;;;;;;15.20;5.18;;;13.10;99.90;;;;;;5051949;28;20040;-70
2023/10/04 06:52:55;;;;;;;;;;;13.10;99.90;;;;;;5053725;28;20029;-70
2023/10/04 06:55:20;;;;;;;9.77;4.22;;;13.20;99.90;;;;;;5053205;28;19908;-70
2023/10/04 06:57:47;;;;;;;13.10;4.57;;;13.20;99.90;;;;;;5051545;28;20079;-70
2023/10/04 07:00:18;;;;;;;12.70;4.38;;;13.20;99.90;;;;;;5053211;28;20101;-70
2023/10/04 07:02:45;;;;;;;;;;;13.30;99.90;;;;;;5051052;28;20501;-70
2023/10/04 07:05:17;;;;;;;14.80;5.22;;;13.30;99.90;;;;;;5053344;28;19909;-70
2023/10/04 07:07:44;;;;;;;14.90;5.07;;;13.30;99.90;;;;;;5051137;28;20028;-70
2023/10/04 07:10:14;;;;;;;14.60;5.22;;;13.30;99.90;;;;;;5053120;28;20021;-70
2023/10/04 07:12:41;;;;;;;13.88;4.68;;;13.30;99.90;;;;;;5051113;28;20029;-70
2023/10/04 07:15:08;;;;;;;16.52;5.05;;;13.40;99.90;;;;;;5053153;28;20029;-70
2023/10/04 07:17:34;;;;;;;17.98;5.55;;;13.50;99.90;;;;;;5052327;28;20483;-70
2023/10/04 07:20:00;;;;;;;16.98;4.90;;;13.50;99.90;;;;;;5052776;28;20078;-70
2023/10/04 07:22:29;;;;;;;16.35;5.38;;;13.60;99.90;;;;;;5051133;28;20025;-70
2023/10/04 07:24:58;;;;;;;13.65;5.47;;;13.60;99.90;;;;;;5052882;28;20025;-70
2023/10/04 07:27:24;;;;;;;14.80;5.20;;;13.70;99.90;;;;;;5052140;28;20506;-71
2023/10/04 07:29:50;;;;;;;14.07;4.93;;;13.70;99.90;;;;;;5051664;28;20029;-70
2023/10/04 07:32:16;;;;;;;16.65;5.28;;;13.80;99.90;;;;;;5052129;28;20031;-70
2023/10/04 07:34:42;;;;;;;13.50;4.88;;;13.90;99.90;;;;;;5052958;28;20025;-71
2023/10/04 07:37:08;;;;;;;18.60;5.70;;;13.90;99.90;;;;;;5052223;28;20502;-70
2023/10/04 07:39:35;;;;;;;11.70;4.57;;;13.90;99.90;;;;;;5051544;28;20494;-70
2023/10/04 07:42:02;;;;;;;20.13;4.97;;;13.90;99.90;;;;;;5050694;28;20025;-70
2023/10/04 07:44:30;;;;;;;16.35;4.88;;;14.00;99.90;;;;;;5052388;28;20013;-70
2023/10/04 07:46:59;;;;;;;12.18;4.28;;;14.10;99.90;;;;;;5051921;28;20025;-70
2023/10/04 07:49:24;;;;;;;12.02;4.60;;;14.10;99.90;;;;;;5052385;28;20045;-70
2023/10/04 07:51:50;;;;;;;15.45;4.97;;;14.10;99.90;;;;;;5051766;28;20031;-70
2023/10/04 07:54:18;;;;;;;12.13;4.28;;;14.20;99.90;;;;;;5052373;28;20487;-70
2023/10/04 07:56:44;;;;;;;17.75;5.28;;;14.30;99.90;;;;;;5051762;28;20055;-70
2023/10/04 07:59:10;;;;;;;14.75;4.72;;;14.30;99.90;;;;;;5051024;28;20123;-70
2023/10/04 08:01:39;;;;;;;13.70;5.03;;;14.40;99.90;;;;;;5051541;28;20593;-71
2023/10/04 08:04:07;;;;;;;18.65;4.95;;;14.50;99.90;;;;;;5052290;28;20028;-70
2023/10/04 08:06:35;;;;;;;11.73;3.60;;;14.50;99.90;;;;;;5050351;28;20120;-70
2023/10/04 08:09:04;;;;;;;11.10;3.78;;;14.60;99.90;;;;;;5052127;28;20025;-70
2023/10/04 08:11:31;;;;;;;20.00;4.32;;;14.70;99.90;;;;;;5051491;28;20025;-71
2023/10/04 08:13:57;;;;;;;14.05;5.30;;;14.70;99.90;;;;;;5050718;28;20067;-71
2023/10/04 08:16:23;;;;;;;16.15;5.15;;;14.80;99.90;;;;;;5051344;28;20511;-71
2023/10/04 08:18:48;;;;;;;12.15;4.15;;;14.80;99.90;;;;;;5051952;28;20028;-71
2023/10/04 08:21:15;;;;;;;17.00;5.35;;;14.90;99.90;;;;;;5051355;28;20013;-70
2023/10/04 08:23:41;;;;;;;11.98;4.35;;;15.00;99.90;;;;;;5051886;28;20475;-70
2023/10/04 08:26:14;;;;;;;11.77;4.20;;;15.00;99.90;;;;;;5051459;28;20042;-70
2023/10/04 08:28:41;;;;;;;16.35;4.72;;;15.10;99.90;;;;;;5051788;28;20032;-70
2023/10/04 08:31:09;;;;;;;15.18;4.75;;;15.20;99.90;;;;;;5051460;28;20077;-70
2023/10/04 08:33:34;;;;;;;13.00;4.28;;;15.20;99.90;;;;;;5051643;28;20036;-70
2023/10/04 08:36:08;;;;;;;10.85;4.38;;;15.30;99.90;;;;;;5051322;28;20021;-70
2023/10/04 08:38:34;;;;;;;15.95;4.28;;;15.40;99.90;;;;;;5050125;28;20047;-71
2023/10/04 08:41:01;;;;;;;20.40;5.10;;;15.40;99.90;;;;;;5051508;28;20391;-71
2023/10/04 08:43:28;;;;;;;15.18;4.82;;;15.50;99.90;;;;;;5050143;28;20017;-70
2023/10/04 08:45:56;;;;;;;17.05;5.05;;;15.60;99.90;;;;;;5051238;28;20025;-70
2023/10/04 08:48:25;;;;;;;18.58;5.43;;;15.70;99.90;;;;;;5051515;28;20035;-70
2023/10/04 08:51:02;;;;;;;16.30;4.47;;;15.70;99.90;;;;;;5051168;28;20045;-70
2023/10/04 08:53:49;;;;;;;14.43;4.35;;;15.80;99.90;;;;;;5051419;28;20108;-70
2023/10/04 08:56:17;;;;;;;16.70;4.63;;;15.80;99.90;;;;;;5051218;28;20033;-70
2023/10/04 08:58:44;;;;;;;17.20;4.88;;;15.80;99.90;;;;;;5051442;28;20033;-70
2023/10/04 09:01:11;;;;;;;10.63;4.15;;;15.80;99.90;;;;;;5051179;28;20028;-71
2023/10/04 09:03:40;;;;;;;15.50;5.03;;;15.90;99.90;;;;;;5051360;28;20032;-70
2023/10/04 09:06:14;;;;;;;13.52;4.20;;;15.90;99.90;;;;;;5049818;28;20029;-70
2023/10/04 09:08:40;;;;;;;14.30;4.43;;;16.00;99.90;;;;;;5050057;28;20056;-70
2023/10/04 09:11:10;;;;;;;12.60;3.80;;;16.10;99.90;;;;;;5051052;28;20215;-70
2023/10/04 09:13:47;;;;;;;13.77;4.63;;;16.10;99.90;;;;;;5051112;28;20056;-70
2023/10/04 09:16:20;;;;;;;14.13;4.93;;;16.20;99.90;;;;;;5050757;28;20033;-70
2023/10/04 09:18:46;;;;;;;15.85;4.50;;;16.20;99.90;;;;;;5051229;28;20082;-70
2023/10/04 09:21:15;;;;;;;13.02;4.38;;;16.30;99.90;;;;;;5049696;28;20025;-70
2023/10/04 09:23:43;;;;;;;13.02;4.10;;;16.20;99.90;;;;;;5051025;28;20035;-70
2023/10/04 09:26:16;;;;;;;14.77;4.30;;;16.30;99.90;;;;;;5053001;28;20460;-70
2023/10/04 09:28:42;;;;;;;9.60;3.55;;;16.30;99.90;;;;;;5053771;28;20055;-70
2023/10/04 09:31:12;;;;;;;17.52;4.20;;;16.30;99.90;;;;;;5053397;28;20033;-70
2023/10/04 09:33:38;;;;;;;13.50;4.00;;;16.40;99.90;;;;;;5054688;28;20491;-71
2023/10/04 09:36:04;;;;;;;11.93;3.85;;;16.40;99.90;;;;;;5054573;28;20014;-70
2023/10/04 09:38:31;;;;;;;12.70;4.22;;;16.40;99.90;;;;;;5054463;28;20557;-70
2023/10/04 09:40:59;;;;;;;11.45;3.83;;;16.50;99.90;;;;;;5054550;28;20035;-71
2023/10/04 09:43:35;;;;;;;15.82;4.78;;;16.50;99.90;;;;;;5054648;28;20049;-70
2023/10/04 09:46:02;;;;;;;11.18;3.35;;;16.60;99.90;;;;;;5054664;28;20032;-70
2023/10/04 09:48:32;;;;;;;13.40;4.47;;;16.60;99.90;;;;;;5054289;28;20032;-71
2023/10/04 09:51:02;;;;;;;12.70;3.95;;;16.60;99.90;;;;;;5054220;28;20056;-70
2023/10/04 09:53:30;;;;;;;15.02;4.38;;;16.70;99.90;;;;;;5053055;28;20074;-70
2023/10/04 09:56:01;;;;;;;12.88;4.28;;;16.70;99.90;;;;;;5054340;28;20028;-70
2023/10/04 09:58:30;;;;;;;11.30;3.38;;;16.70;99.90;;;;;;5054270;28;20167;-70
2023/10/04 10:01:05;;;;;;;14.40;4.43;;;16.80;99.90;;;;;;5054369;28;20056;-70
2023/10/04 10:03:38;;;;;;;15.95;4.30;;;16.80;99.90;;;;;;5054189;28;20544;-70
2023/10/04 10:06:07;;;;;;;11.73;4.35;;;16.80;99.90;;;;;;5054106;28;20154;-71
2023/10/04 10:08:36;;;;;;;15.05;4.30;;;16.90;99.90;;;;;;5054036;28;20028;-70
2023/10/04 10:11:03;;;;;;;10.85;4.00;;;16.90;99.90;;;;;;5054223;28;20104;-70
2023/10/04 10:13:30;;;;;;;13.60;4.05;;;16.90;99.90;;;;;;5052599;28;20471;-70
2023/10/04 10:15:56;;;;;;;13.43;4.00;;;16.90;99.90;;;;;;5054084;28;20479;-70
2023/10/04 10:18:22;;;;;;;14.13;4.03;;;17.00;99.90;;;;;;5053638;28;20025;-71
2023/10/04 10:20:48;;;;;;;13.15;4.40;;;17.00;99.90;;;;;;5052750;28;20032;-70
2023/10/04 10:23:14;;;;;;;15.48;3.97;;;17.00;99.90;;;;;;5053684;28;20421;-70
2023/10/04 10:25:41;;;;;;;9.00;3.53;;;17.00;99.90;;;;;;5054133;28;20043;-71
2023/10/04 10:28:20;;;;;;;13.93;4.15;;;17.10;99.90;;;;;;5053380;28;20021;-70
2023/10/04 10:30:46;;;;;;;11.68;3.60;;;17.10;99.90;;;;;;5054034;28;20479;-70
2023/10/04 10:33:12;;;;;;;13.77;4.30;;;17.10;99.90;;;;;;5053228;28;20029;-70
2023/10/04 10:35:56;;;;;;;11.68;4.18;;;17.10;99.90;;;;;;5054134;28;20033;-70
2023/10/04 10:38:39;;;;;;;13.93;4.07;;;17.10;99.90;;;;;;5052261;28;20422;-70
2023/10/04 10:41:28;;;;;;;10.23;3.60;;;17.10;99.90;;;;;;5053499;28;20100;-71
2023/10/04 10:44:13;;;;;;;13.35;4.57;;;17.10;99.90;;;;;;5051798;28;20442;-70
2023/10/04 10:46:58;;;;;;;17.80;5.25;;;17.00;99.90;;;;;;5053131;28;20021;-70
2023/10/04 10:49:40;;;;;;;11.85;3.80;;;17.10;99.90;;;;;;5053268;28;20457;-71
2023/10/04 10:52:09;;;;;;;13.85;4.68;;;17.20;99.90;;;;;;5052772;28;20602;-70
2023/10/04 10:54:36;;;;;;;12.85;4.15;;;17.20;99.90;;;;;;5053607;28;20091;-70
2023/10/04 10:57:05;;;;;;;13.68;4.63;;;17.30;99.90;;;;;;5052820;28;20044;-70
2023/10/04 10:59:35;;;;;;;12.48;4.15;;;17.30;99.90;;;;;;5053170;28;20419;-70
2023/10/04 11:02:04;;;;;;;15.10;4.50;;;17.30;99.90;;;;;;5051419;28;20028;-71
2023/10/04 11:04:30;;;;;;;9.85;3.47;;;17.40;99.90;;;;;;5053141;28;20029;-70
2023/10/04 11:06:57;;;;;;;11.18;4.18;;;17.50;99.90;;;;;;5052751;28;20019;-71
2023/10/04 11:09:23;;;;;;;10.27;3.80;;;17.50;99.90;;;;;;5053042;28;20025;-70
2023/10/04 11:11:49;;;;;;;12.43;3.75;;;17.60;99.90;;;;;;5052565;28;20025;-70
2023/10/04 11:14:18;;;;;;;13.90;4.18;;;17.60;99.90;;;;;;5053026;28;20024;-70
2023/10/04 11:16:44;;;;;;;11.45;4.05;;;17.70;99.90;;;;;;5051042;28;20405;-70
2023/10/04 11:19:12;;;;;;;13.00;4.00;;;17.70;99.90;;;;;;5052815;28;20021;-70
2023/10/04 11:21:38;;;;;;;12.02;4.18;;;17.80;99.90;;;;;;5051154;28;20017;-71
2023/10/04 11:24:04;;;;;;;8.77;3.70;;;17.80;99.90;;;;;;5052780;28;20009;-71
2023/10/04 11:26:30;;;;;;;10.70;3.28;;;17.90;99.90;;;;;;5052457;28;20822;-71
2023/10/04 11:28:57;;;;;;;13.75;4.85;;;17.90;99.90;;;;;;5052715;28;20528;-71
2023/10/04 11:31:23;;;;;;;13.70;4.78;;;17.90;99.90;;;;;;5052485;28;20403;-71
2023/10/04 11:33:55;;;;;;;10.05;4.68;;;17.90;99.90;;;;;;5052287;28;20040;-70
2023/10/04 11:36:24;;;;;;;15.90;5.03;;;17.90;99.90;;;;;;5052475;28;20094;-71
2023/10/04 11:38:51;;;;;;;11.70;4.38;;;17.90;99.90;;;;;;5052175;28;20039;-70
2023/10/04 11:41:19;;;;;;;10.48;4.20;;;18.00;99.90;;;;;;5051246;28;20438;-70
2023/10/04 11:43:45;;;;;;;11.30;4.22;;;18.00;99.90;;;;;;5052094;28;20075;-70
2023/10/04 11:46:11;;;;;;;11.23;4.00;;;18.10;99.90;;;;;;5052524;28;20100;-71
2023/10/04 11:48:37;;;;;;;14.18;4.25;;;18.20;99.90;;;;;;5051203;28;20052;-71
2023/10/04 11:51:04;;;;;;;10.10;4.05;;;18.20;99.90;;;;;;5052490;28;20082;-70
2023/10/04 11:53:42;;;;;;;10.80;4.32;;;18.20;99.90;;;;;;5051873;28;20049;-71
2023/10/04 11:56:09;;;;;;;12.75;4.82;;;18.20;99.90;;;;;;5052430;28;20176;-70
2023/10/04 11:58:51;;;;;;;9.88;4.53;;;18.30;99.90;;;;;;5051623;28;20562;-71
2023/10/04 12:01:18;;;;;;;11.57;4.07;;;18.30;99.90;;;;;;5052256;28;20029;-70
2023/10/04 12:03:44;;;;;;;9.68;3.58;;;18.20;99.90;;;;;;5051690;28;20023;-71
2023/10/04 12:06:10;;;;;;;12.27;4.38;;;18.20;99.90;;;;;;5052221;28;20475;-70
2023/10/04 12:08:39;;;;;;;10.50;3.92;;;18.20;99.90;;;;;;5051556;28;20544;-71
2023/10/04 12:11:13;;;;;;;11.10;4.20;;;18.20;99.90;;;;;;5051988;28;20531;-71
2023/10/04 12:13:39;;;;;;;10.50;4.53;;;18.20;99.90;;;;;;5051390;28;20029;-70
2023/10/04 12:16:06;;;;;;;13.75;4.60;;;18.20;99.90;;;;;;5052130;28;20029;-71
2023/10/04 12:18:31;;;;;;;10.13;4.05;;;18.20;99.90;;;;;;5051503;28;20029;-71
2023/10/04 12:20:57;;;;;;;9.65;3.88;;;18.20;99.90;;;;;;5050509;28;20543;-71
2023/10/04 12:23:23;;;;;;;9.95;4.20;;;18.20;99.90;;;;;;5051234;28;20037;-70
2023/10/04 12:25:48;;;;;;;10.43;3.80;;;18.20;99.90;;;;;;5052329;28;20517;-71
2023/10/04 12:28:14;;;;;;;10.88;3.83;;;18.20;99.90;;;;;;5051156;28;20498;-71
2023/10/04 12:30:41;;;;;;;8.77;4.07;;;18.30;99.90;;;;;;5051808;28;20184;-70
2023/10/04 12:33:08;;;;;;;11.30;4.30;;;18.30;99.90;;;;;;5051135;28;20100;-71
2023/10/04 12:35:34;;;;;;;10.30;3.33;;;18.30;99.90;;;;;;5051970;28;20029;-70
2023/10/04 12:37:59;;;;;;;12.65;4.65;;;18.30;99.90;;;;;;5051080;28;20032;-71
2023/10/04 12:40:25;;;;;;;9.18;3.60;;;18.30;99.90;;;;;;5051657;28;20391;-70
2023/10/04 12:42:52;;;;;;;9.70;3.92;;;18.30;99.90;;;;;;5050994;28;20040;-70
2023/10/04 12:45:18;;;;;;;9.82;4.45;;;18.30;99.90;;;;;;5051589;28;20021;-71